createdAt,value
2022-09-04T00:01:52.629Z,101429.06
2022-09-04T00:07:04.403Z,101430.88
2022-09-04T00:12:08.957Z,101429.59
2022-09-04T00:17:13.003Z,101434.16
2022-09-04T00:22:27.185Z,101435.34
2022-09-04T00:27:30.711Z,101448.63
2022-09-04T00:32:41.530Z,101449.50
2022-09-04T00:37:50.831Z,101447.25
2022-09-04T00:43:08.332Z,101449.84
2022-09-04T00:48:45.600Z,101459.13
2022-09-04T00:54:18.051Z,101467.91
2022-09-04T00:59:29.796Z,101472.16
2022-09-04T01:04:39.800Z,101477.19
2022-09-04T01:09:53.474Z,101472.81
2022-09-04T01:15:00.971Z,101483.47
2022-09-04T01:20:11.267Z,101485.16
2022-09-04T01:25:31.367Z,101490.25
2022-09-04T01:30:36.050Z,101480.81
2022-09-04T01:35:43.650Z,101488.44
2022-09-04T01:40:48.318Z,101492.72
2022-09-04T01:46:13.062Z,101494.22
2022-09-04T01:51:21.925Z,101493.97
2022-09-04T01:56:27.084Z,101498.53
2022-09-04T02:01:38.660Z,101496.97
2022-09-04T02:06:50.542Z,101501.84
2022-09-04T02:11:56.894Z,101507.59
2022-09-04T02:17:09.298Z,101510.78
2022-09-04T02:22:18.164Z,101516.31
2022-09-04T02:27:23.438Z,101515.84
2022-09-04T02:32:31.159Z,101509.16
2022-09-04T02:37:38.819Z,101506.09
2022-09-04T02:42:47.969Z,101492.59
2022-09-04T02:47:54.604Z,101490.34
2022-09-04T02:53:08.734Z,101485.03
2022-09-04T02:58:21.252Z,101490.91
2022-09-04T03:03:27.985Z,101487.38
2022-09-04T03:08:36.220Z,101473.50
2022-09-04T03:13:45.120Z,101488.38
2022-09-04T03:19:04.304Z,101493.47
2022-09-04T03:24:15.184Z,101497.28
2022-09-04T03:29:25.270Z,101502.94
2022-09-04T03:34:42.464Z,101501.84
2022-09-04T03:39:52.724Z,101504.50
2022-09-04T03:45:03.805Z,101493.38
2022-09-04T03:50:12.947Z,101504.97
2022-09-04T03:55:48.211Z,101519.66
2022-09-04T04:00:57.302Z,101515.19
2022-09-04T04:06:13.148Z,101519.41
2022-09-04T04:11:41.340Z,101523.47
2022-09-04T04:16:56.354Z,101527.66
2022-09-04T04:22:10.469Z,101521.78
2022-09-04T04:27:25.865Z,101528.41
2022-09-04T04:33:00.413Z,101511.59
2022-09-04T04:38:15.560Z,101519.91
2022-09-04T04:43:23.892Z,101517.69
2022-09-04T04:49:00.430Z,101531.63
2022-09-04T04:54:15.050Z,101528.34
2022-09-04T04:59:23.535Z,101529.00
2022-09-04T05:04:33.300Z,101552.72
2022-09-04T05:09:43.261Z,101551.88
2022-09-04T05:14:51.560Z,101566.22
2022-09-04T05:20:00.696Z,101568.25
2022-09-04T05:25:11.806Z,101576.38
2022-09-04T05:30:14.022Z,101579.16
2022-09-04T05:35:19.278Z,101587.03
2022-09-04T05:40:29.427Z,101595.06
2022-09-04T05:45:39.150Z,101596.44
2022-09-04T05:50:50.316Z,101602.66
2022-09-04T05:56:09.288Z,101602.66
2022-09-04T06:01:19.735Z,101601.28
2022-09-04T06:06:23.985Z,101621.88
2022-09-04T06:11:42.337Z,101627.41
2022-09-04T06:16:55.133Z,101629.22
2022-09-04T06:22:20.419Z,101634.66
2022-09-04T06:27:35.471Z,101637.19
2022-09-04T06:32:56.599Z,101631.69
2022-09-04T06:38:08.320Z,101637.81
2022-09-04T06:43:27.455Z,101638.84
2022-09-04T06:48:39.312Z,101645.34
2022-09-04T06:53:42.789Z,101645.53
2022-09-04T06:59:07.205Z,101652.72
2022-09-04T07:04:14.622Z,101653.84
2022-09-04T07:09:18.434Z,101651.50
2022-09-04T07:14:38.858Z,101655.41
2022-09-04T07:20:14.836Z,101643.69
2022-09-04T07:25:18.590Z,101633.59
2022-09-04T07:30:20.345Z,101629.72
2022-09-04T07:35:25.254Z,101634.44
2022-09-04T07:40:30.920Z,101628.47
2022-09-04T07:45:37.935Z,101623.63
2022-09-04T07:50:41.729Z,101627.03
2022-09-04T07:55:43.595Z,101621.16
2022-09-04T08:00:57.833Z,101619.94
2022-09-04T08:06:08.343Z,101617.97
2022-09-04T08:11:28.130Z,101616.53
2022-09-04T08:16:36.100Z,101619.44
2022-09-04T08:21:39.277Z,101618.81
2022-09-04T08:26:47.139Z,101620.69
2022-09-04T08:32:03.782Z,101620.22
2022-09-04T08:37:15.591Z,101609.03
2022-09-04T08:42:43.316Z,101619.97
2022-09-04T08:48:19.403Z,101628.50
2022-09-04T08:53:55.989Z,101640.88
2022-09-04T08:59:29.017Z,101624.78
2022-09-04T09:05:04.947Z,101635.03
2022-09-04T09:10:32.180Z,101621.75
2022-09-04T09:15:57.346Z,101629.16
2022-09-04T09:21:07.357Z,101629.06
2022-09-04T09:26:24.430Z,101630.00
2022-09-04T09:31:51.770Z,101629.78
2022-09-04T09:37:26.736Z,101632.72
2022-09-04T09:42:53.743Z,101645.03
2022-09-04T09:48:46.371Z,101645.06
2022-09-04T09:54:29.242Z,101637.09
2022-09-04T09:59:47.035Z,101625.59
2022-09-04T10:05:26.499Z,101620.88
2022-09-04T10:10:55.048Z,101615.31
2022-09-04T10:16:35.680Z,101621.91
2022-09-04T10:22:14.223Z,101618.41
2022-09-04T10:27:49.945Z,101614.84
2022-09-04T10:33:26.620Z,101626.00
2022-09-04T10:38:37.727Z,101622.28
2022-09-04T10:44:03.064Z,101617.88
2022-09-04T10:49:20.704Z,101618.38
2022-09-04T10:54:45.173Z,101615.25
2022-09-04T11:00:03.160Z,101610.81
2022-09-04T11:05:36.694Z,101613.88
2022-09-04T11:10:59.373Z,101610.41
2022-09-04T11:16:23.890Z,101594.59
2022-09-04T11:21:59.412Z,101581.38
2022-09-04T11:27:26.588Z,101596.25
2022-09-04T11:32:53.663Z,101593.47
2022-09-04T11:38:10.421Z,101579.75
2022-09-04T11:43:37.446Z,101580.56
2022-09-04T11:49:09.493Z,101570.50
2022-09-04T11:54:31.006Z,101557.66
2022-09-04T11:59:48.504Z,101555.06
2022-09-04T12:05:05.135Z,101559.22
2022-09-04T12:11:16.743Z,101558.28
2022-09-04T12:16:53.218Z,101540.53
2022-09-04T12:28:27.158Z,101570.94
2022-09-04T12:33:46.510Z,101561.00
2022-09-04T12:39:24.134Z,101572.31
2022-09-04T12:44:39.274Z,101580.81
2022-09-04T12:50:04.099Z,101550.97
2022-09-04T12:55:13.007Z,101531.66
2022-09-04T13:06:21.183Z,101561.50
2022-09-04T13:12:04.988Z,101558.53
2022-09-04T13:17:20.661Z,101548.53
2022-09-04T13:22:33.510Z,101540.91
2022-09-04T13:27:59.007Z,101538.94
2022-09-04T13:33:26.974Z,101543.00
2022-09-04T13:45:14.072Z,101554.81
2022-09-04T13:56:16.911Z,101549.06
2022-09-04T14:01:21.941Z,101545.69
2022-09-04T14:06:25.587Z,101551.38
2022-09-04T14:11:53.273Z,101554.13
2022-09-04T14:16:55.553Z,101552.56
2022-09-04T14:22:17.773Z,101552.25
2022-09-04T14:27:27.827Z,101572.91
2022-09-04T14:33:06.198Z,101564.06
2022-09-04T14:45:24.529Z,101555.38
2022-09-04T14:51:28.444Z,101547.63
2022-09-04T15:24:48.186Z,101564.09
2022-09-04T15:30:55.286Z,101552.28
2022-09-04T15:48:35.483Z,101561.91
2022-09-04T15:53:36.832Z,101553.34
2022-09-04T15:58:46.413Z,101557.69
2022-09-04T16:04:01.509Z,101546.97
2022-09-04T16:09:07.043Z,101534.91
2022-09-04T16:43:10.875Z,101549.09
2022-09-04T16:48:34.308Z,101560.63
2022-09-04T16:53:45.206Z,101568.88
2022-09-04T17:04:54.657Z,101578.53
2022-09-04T17:10:03.155Z,101581.66
2022-09-04T17:15:44.228Z,101578.16
2022-09-04T17:26:19.874Z,101598.81
2022-09-04T17:29:08.798Z,101597.09
2022-09-04T17:40:55.962Z,101607.22
2022-09-04T17:49:13.158Z,101611.09
2022-09-04T17:54:27.181Z,101620.09
2022-09-04T17:59:40.434Z,101636.75
2022-09-04T18:04:50.998Z,101636.03
2022-09-04T18:10:01.570Z,101635.75
2022-09-04T18:15:33.203Z,101645.59
2022-09-04T18:27:04.861Z,101658.75
2022-09-04T18:37:26.027Z,101661.63
2022-09-04T18:37:55.078Z,101661.41
2022-09-04T18:50:11.641Z,101662.53
2022-09-04T18:50:51.327Z,101677.16
2022-09-04T18:54:24.570Z,101672.34
2022-09-04T19:06:16.786Z,101678.06
2022-09-04T19:11:37.128Z,101671.28
2022-09-04T19:16:56.116Z,101674.63
2022-09-04T19:22:28.303Z,101673.28
2022-09-04T19:27:39.022Z,101667.00
2022-09-04T19:32:46.585Z,101663.63
2022-09-04T19:40:58.449Z,101672.75
2022-09-04T19:46:09.187Z,101670.94
2022-09-04T19:49:19.366Z,101676.41
2022-09-04T19:54:13.070Z,101681.97
2022-09-04T19:59:24.120Z,101681.63
2022-09-04T20:04:41.093Z,101678.59
2022-09-04T20:09:46.720Z,101690.13
2022-09-04T20:15:01.795Z,101697.03
2022-09-04T20:20:16.010Z,101700.81
2022-09-04T20:25:40.082Z,101694.94
2022-09-04T20:30:45.022Z,101688.75
2022-09-04T20:35:50.489Z,101690.41
2022-09-04T20:40:58.981Z,101690.53
2022-09-04T20:50:10.348Z,101682.53
2022-09-04T20:52:57.781Z,101691.03
2022-09-04T21:00:16.849Z,101692.56
2022-09-04T21:03:24.846Z,101695.56
2022-09-04T21:08:10.561Z,101696.88
2022-09-04T21:13:15.166Z,101690.22
2022-09-04T21:18:37.773Z,101695.50
2022-09-04T21:24:12.684Z,101688.19
2022-09-04T21:29:37.029Z,101690.41
2022-09-04T21:34:56.068Z,101691.59
2022-09-04T21:40:51.420Z,101693.88
2022-09-04T21:46:04.682Z,101682.41
2022-09-04T21:51:28.704Z,101684.84
2022-09-04T22:02:15.071Z,101674.84
2022-09-04T22:02:54.327Z,101681.22
2022-09-04T22:13:28.413Z,101686.19
2022-09-04T22:13:49.315Z,101686.19
2022-09-04T22:19:17.286Z,101689.41
2022-09-04T22:24:48.382Z,101681.72
2022-09-04T22:30:12.884Z,101695.78
2022-09-04T22:36:14.128Z,101693.66
2022-09-04T22:42:01.549Z,101690.19
2022-09-04T22:47:27.746Z,101689.06
2022-09-04T22:52:43.123Z,101677.78
2022-09-04T22:57:57.362Z,101681.72
2022-09-04T23:03:33.236Z,101678.56
2022-09-04T23:13:54.629Z,101683.25
2022-09-04T23:14:25.605Z,101681.31
2022-09-04T23:26:38.817Z,101676.22
2022-09-04T23:32:22.534Z,101665.28
2022-09-04T23:37:42.734Z,101672.34
2022-09-04T23:43:07.520Z,101675.97
2022-09-04T23:49:18.659Z,101676.09
2022-09-04T23:54:49.802Z,101680.69
2022-09-04T23:59:56.960Z,101674.63
